Terminal Aerodrome Forecast
Issued by NWS Cleveland, OH

Home | Current Version | Previous Version | Graphics & Text | Print | Product List | Glossary Off
Versions: 1 2 3 4 5 6 7 8 9 10 11 12 13 14 15 16 17 18 19 20 21 22 23 24 25 26

543
FTUS41 KCLE 300132 AAA
TAFTOL
TAF AMD
KTOL 300132Z 3002/3024 07010G15KT P6SM OVC025
     FM300300 07015G25KT P6SM OVC010
     FM300600 07015G25KT 5SM -TSRA BR OVC010CB
     FM300900 07012KT P6SM OVC005
     FM301600 17010G20KT 6SM BR OVC007
     FM302000 21010G20KT 4SM -TSRA BR OVC025CB=

USA.gov is the U.S. government's official web portal to all federal, state and local government web resources and services.